Time;durP1;ratioP1;P1;durP2;ratioP2;P2;SDS_P1;SDS_P2;PMS_P1;PMS_P2;Temp;Humidity;BMP_temperature;BMP_pressure;BME280_temperature;BME280_humidity;BME280_pressure;Samples;Min_cycle;Max_cycle;Signal;HPM_P1;HPM_P2
2021/07/17 00:00:30;;;;;;;23.67;6.73;;;;;;;-145.18;100.00;60484.78;5081011;28;20054;-71
2021/07/17 00:02:55;;;;;;;21.87;5.90;;;;;;;-145.18;100.00;60484.78;5088206;28;20032;-71
2021/07/17 00:05:22;;;;;;;25.30;5.77;;;;;;;-145.18;100.00;60484.78;5081948;28;20028;-71
2021/07/17 00:07:48;;;;;;;23.70;6.33;;;;;;;-145.18;100.00;60484.78;5087456;28;20500;-71
2021/07/17 00:10:23;;;;;;;18.00;5.90;;;;;;;-145.18;100.00;60484.78;5081817;28;20047;-71
2021/07/17 00:12:49;;;;;;;23.90;5.97;;;;;;;-145.18;100.00;60484.78;5085677;28;20052;-71
2021/07/17 00:15:16;;;;;;;17.97;5.87;;;;;;;-145.18;100.00;60484.78;5082003;28;20125;-71
2021/07/17 00:17:43;;;;;;;25.33;6.33;;;;;;;-145.18;100.00;60484.78;5085334;28;20565;-71
2021/07/17 00:20:10;;;;;;;20.97;5.53;;;;;;;-145.18;100.00;60484.78;5080639;28;20384;-71
2021/07/17 00:22:36;;;;;;;23.80;5.87;;;;;;;-145.18;100.00;60484.78;5083550;28;20165;-71
2021/07/17 00:25:08;;;;;;;25.43;5.73;;;;;;;-145.18;100.00;60484.78;5081724;28;20381;-71
2021/07/17 00:27:34;;;;;;;;;;;;;;;-145.18;100.00;60484.78;5082973;28;20032;-71
2021/07/17 00:29:59;;;;;;;18.43;5.33;;;;;;;-145.18;100.00;60484.78;5086378;28;20006;-71
2021/07/17 00:32:25;;;;;;;19.33;5.53;;;;;;;-145.18;100.00;60484.78;5091443;28;20033;-71
2021/07/17 00:34:50;;;;;;;20.57;5.87;;;;;;;-145.18;100.00;60484.78;5081140;28;20184;-71
2021/07/17 00:37:16;;;;;;;18.53;5.90;;;;;;;-145.18;100.00;60484.78;5086542;28;20314;-71
2021/07/17 00:39:41;;;;;;;19.40;5.00;;;;;;;-145.18;100.00;60484.78;5081081;28;20099;-71
2021/07/17 00:42:07;;;;;;;25.00;5.73;;;;;;;-145.18;100.00;60484.78;5088344;28;20019;-71
2021/07/17 00:44:33;;;;;;;15.67;5.73;;;;;;;-145.18;100.00;60484.78;5085695;28;21526;-71
2021/07/17 00:46:59;;;;;;;26.57;7.07;;;;;;;-145.18;100.00;60484.78;5087246;28;20107;-71
2021/07/17 00:49:28;;;;;;;17.80;5.97;;;;;;;-145.18;100.00;60484.78;5085737;28;20107;-71
2021/07/17 00:51:54;;;;;;;24.73;5.33;;;;;;;-145.18;100.00;60484.78;5086417;28;20317;-71
2021/07/17 00:54:22;;;;;;;24.70;6.60;;;;;;;-145.18;100.00;60484.78;5085227;28;20105;-71
2021/07/17 00:56:48;;;;;;;14.50;5.27;;;;;;;-145.18;100.00;60484.78;5085626;28;20409;-71
2021/07/17 00:59:18;;;;;;;18.63;5.33;;;;;;;-145.18;100.00;60484.78;5084952;28;20226;-71
2021/07/17 01:01:43;;;;;;;19.27;6.00;;;;;;;-145.18;100.00;60484.78;5084973;28;20027;-70
2021/07/17 01:04:09;;;;;;;21.40;6.17;;;;;;;-145.18;100.00;60484.78;5082633;28;20020;-70
2021/07/17 01:06:35;;;;;;;25.90;6.73;;;;;;;-145.18;100.00;60484.78;5082075;28;20094;-70
2021/07/17 01:09:00;;;;;;;18.37;6.50;;;;;;;-145.18;100.00;60484.78;5088561;28;20385;-70
2021/07/17 01:11:26;;;;;;;23.97;6.33;;;;;;;-145.18;100.00;60484.78;5082327;28;20019;-70
2021/07/17 01:13:51;;;;;;;17.47;5.40;;;;;;;-145.18;100.00;60484.78;5089213;28;20498;-70
2021/07/17 01:16:17;;;;;;;17.80;5.60;;;;;;;-145.18;100.00;60484.78;5080712;28;20292;-70
2021/07/17 01:18:43;;;;;;;19.30;6.03;;;;;;;-145.18;100.00;60484.78;5089565;28;20153;-70
2021/07/17 01:21:15;;;;;;;18.97;5.90;;;;;;;-145.18;100.00;60484.78;5081224;28;20028;-70
2021/07/17 01:23:41;;;;;;;;;;;;;;;-145.18;100.00;60484.78;5087351;28;20404;-70
2021/07/17 01:26:06;;;;;;;25.87;7.47;;;;;;;-145.18;100.00;60484.78;5080680;28;20187;-70
2021/07/17 01:28:32;;;;;;;19.07;5.90;;;;;;;-145.18;100.00;60484.78;5086877;28;20028;-70
2021/07/17 01:30:57;;;;;;;25.60;6.63;;;;;;;-145.18;100.00;60484.78;5080848;28;20264;-70
2021/07/17 01:33:23;;;;;;;20.20;5.80;;;;;;;-145.18;100.00;60484.78;5077832;28;20025;-70
2021/07/17 01:35:49;;;;;;;17.27;5.47;;;;;;;-145.18;100.00;60484.78;5080941;28;20284;-70
2021/07/17 01:38:15;;;;;;;25.30;6.10;;;;;;;-145.18;100.00;60484.78;5084715;28;20038;-70
2021/07/17 01:40:40;;;;;;;21.07;5.50;;;;;;;-145.18;100.00;60484.78;5078958;28;20031;-70
2021/07/17 01:43:06;;;;;;;21.70;5.90;;;;;;;-145.18;100.00;60484.78;5083434;28;20035;-70
2021/07/17 01:45:40;;;;;;;22.07;5.13;;;;;;;-145.18;100.00;60484.78;5080858;28;20404;-70
2021/07/17 01:48:07;;;;;;;22.50;5.73;;;;;;;-145.18;100.00;60484.78;5081974;28;20233;-70
2021/07/17 01:50:33;;;;;;;19.67;5.23;;;;;;;-145.18;100.00;60484.78;5084384;28;20088;-70
2021/07/17 01:52:59;;;;;;;24.13;5.83;;;;;;;-145.18;100.00;60484.78;5084255;28;20035;-70
2021/07/17 01:55:25;;;;;;;23.73;5.13;;;;;;;-145.18;100.00;60484.78;5084054;28;20027;-70
2021/07/17 01:57:51;;;;;;;20.63;6.03;;;;;;;-145.18;100.00;60484.78;5085007;28;20067;-70
2021/07/17 02:00:19;;;;;;;21.60;6.13;;;;;;;-145.18;100.00;60484.78;5083893;28;20077;-70
2021/07/17 02:02:45;;;;;;;16.50;5.13;;;;;;;-145.18;100.00;60484.78;5095063;28;20027;-70
2021/07/17 02:05:11;;;;;;;17.10;5.43;;;;;;;-145.18;100.00;60484.78;5083161;28;20012;-70
2021/07/17 02:07:41;;;;;;;16.73;4.97;;;;;;;-145.18;100.00;60484.78;5088061;28;20032;-70
2021/07/17 02:10:10;;;;;;;18.63;4.87;;;;;;;-145.18;100.00;60484.78;5083779;28;20593;-70
2021/07/17 02:12:55;;;;;;;18.10;5.03;;;;;;;-145.18;100.00;60484.78;5092423;28;20047;-70
2021/07/17 02:15:20;;;;;;;20.50;5.60;;;;;;;-145.18;100.00;60484.78;5083560;28;20025;-70
2021/07/17 02:17:47;;;;;;;24.37;5.37;;;;;;;-145.18;100.00;60484.78;5083742;28;20092;-70
2021/07/17 02:20:13;;;;;;;17.70;4.70;;;;;;;-145.18;100.00;60484.78;5083749;28;20036;-70
2021/07/17 02:22:38;;;;;;;23.60;5.03;;;;;;;-145.18;100.00;60484.78;5089999;28;20067;-70
2021/07/17 02:25:05;;;;;;;19.30;4.70;;;;;;;-145.18;100.00;60484.78;5083647;28;20504;-70
2021/07/17 02:27:34;;;;;;;21.10;4.57;;;;;;;-145.18;100.00;60484.78;5088454;28;20032;-70
2021/07/17 02:30:00;;;;;;;23.47;5.13;;;;;;;-145.18;100.00;60484.78;5083305;28;20032;-70
2021/07/17 02:32:25;;;;;;;23.43;5.07;;;;;;;-145.18;100.00;60484.78;5087125;28;20093;-70
2021/07/17 02:34:51;;;;;;;18.60;4.43;;;;;;;-145.18;100.00;60484.78;5083648;28;20526;-70
2021/07/17 02:37:17;;;;;;;21.47;5.20;;;;;;;-145.18;100.00;60484.78;5085522;28;20545;-70
2021/07/17 02:39:43;;;;;;;20.27;4.73;;;;;;;-145.18;100.00;60484.78;5083434;28;20024;-70
2021/07/17 02:42:08;;;;;;;17.80;4.03;;;;;;;-145.18;100.00;60484.78;5084482;28;20031;-70
2021/07/17 02:44:34;;;;;;;18.10;5.00;;;;;;;-145.18;100.00;60484.78;5082401;28;20016;-70
2021/07/17 02:46:59;;;;;;;17.17;5.00;;;;;;;-145.18;100.00;60484.78;5083368;28;20055;-70
2021/07/17 02:49:25;;;;;;;18.53;5.03;;;;;;;-145.18;100.00;60484.78;5083264;28;20027;-70
2021/07/17 02:51:50;;;;;;;21.83;4.77;;;;;;;-145.18;100.00;60484.78;5088145;28;20024;-70
2021/07/17 02:54:16;;;;;;;19.47;5.23;;;;;;;-145.18;100.00;60484.78;5091077;28;20020;-70
2021/07/17 02:56:42;;;;;;;17.37;5.00;;;;;;;-145.18;100.00;60484.78;5086884;28;20114;-70
2021/07/17 02:59:08;;;;;;;24.93;4.43;;;;;;;-145.18;100.00;60484.78;5091406;28;20533;-70
2021/07/17 03:01:33;;;;;;;10.20;4.03;;;;;;;-145.18;100.00;60484.78;5086387;28;20016;-72
2021/07/17 03:03:59;;;;;;;18.50;4.70;;;;;;;-145.18;100.00;60484.78;5090820;28;20380;-72
2021/07/17 03:06:24;;;;;;;19.20;4.70;;;;;;;-145.18;100.00;60484.78;5079120;28;20073;-72
2021/07/17 03:08:50;;;;;;;15.70;4.93;;;;;;;-145.18;100.00;60484.78;5090031;28;20024;-72
2021/07/17 03:11:15;;;;;;;22.47;5.07;;;;;;;-145.18;100.00;60484.78;5082571;28;20027;-72
2021/07/17 03:13:41;;;;;;;19.97;4.87;;;;;;;-145.18;100.00;60484.78;5090022;28;20040;-72
2021/07/17 03:16:07;;;;;;;15.23;4.30;;;;;;;-145.18;100.00;60484.78;5082105;28;20156;-73
2021/07/17 03:18:32;;;;;;;21.70;4.63;;;;;;;-145.18;100.00;60484.78;5088190;28;20085;-72
2021/07/17 03:20:58;;;;;;;15.23;4.30;;;;;;;-145.18;100.00;60484.78;5082150;28;20047;-72
2021/07/17 03:23:23;;;;;;;19.03;4.10;;;;;;;-145.18;100.00;60484.78;5087802;28;20028;-72
2021/07/17 03:25:49;;;;;;;22.53;4.53;;;;;;;-145.18;100.00;60484.78;5082335;28;20529;-72
2021/07/17 03:28:15;;;;;;;21.00;4.50;;;;;;;-145.18;100.00;60484.78;5086551;28;20028;-72
2021/07/17 03:30:41;;;;;;;19.00;4.13;;;;;;;-145.18;100.00;60484.78;5082066;28;20055;-72
2021/07/17 03:33:06;;;;;;;22.90;4.67;;;;;;;-145.18;100.00;60484.78;5085183;28;20047;-72
2021/07/17 03:35:32;;;;;;;13.30;4.47;;;;;;;-145.18;100.00;60484.78;5082083;28;20032;-72
2021/07/17 03:37:58;;;;;;;17.87;4.53;;;;;;;-145.18;100.00;60484.78;5084540;28;20107;-72
2021/07/17 03:40:23;;;;;;;20.43;4.10;;;;;;;-145.18;100.00;60484.78;5082152;28;20732;-75
2021/07/17 03:42:49;;;;;;;19.10;4.97;;;;;;;-145.18;100.00;60484.78;5083131;28;20024;-73
2021/07/17 03:45:15;;;;;;;20.33;4.87;;;;;;;-145.18;100.00;60484.78;5082292;28;20055;-73
2021/07/17 03:47:40;;;;;;;15.83;4.27;;;;;;;-145.18;100.00;60484.78;5094023;28;20023;-72
2021/07/17 03:50:07;;;;;;;13.27;4.23;;;;;;;-145.18;100.00;60484.78;5082285;28;20079;-72
2021/07/17 03:52:32;;;;;;;15.37;3.80;;;;;;;-145.18;100.00;60484.78;5093200;28;20433;-73
2021/07/17 03:54:58;;;;;;;21.10;5.53;;;;;;;-145.18;100.00;60484.78;5083971;28;20051;-72
2021/07/17 03:57:23;;;;;;;17.53;4.23;;;;;;;-145.18;100.00;60484.78;5094701;28;20511;-72
2021/07/17 03:59:49;;;;;;;18.50;4.33;;;;;;;-145.18;100.00;60484.78;5087018;28;20052;-73
2021/07/17 04:02:14;;;;;;;18.03;4.57;;;;;;;-145.18;100.00;60484.78;5088733;28;20093;-72
2021/07/17 04:04:41;;;;;;;16.60;4.93;;;;;;;-145.18;100.00;60484.78;5085937;28;20032;-73
2021/07/17 04:07:08;;;;;;;18.70;4.03;;;;;;;-145.18;100.00;60484.78;5087974;28;20102;-73
2021/07/17 04:09:34;;;;;;;18.37;4.30;;;;;;;-145.18;100.00;60484.78;5087375;28;20039;-73
2021/07/17 04:11:59;;;;;;;16.27;4.33;;;;;;;-145.18;100.00;60484.78;5091139;28;20049;-72
2021/07/17 04:14:25;;;;;;;9.53;3.40;;;;;;;-145.18;100.00;60484.78;5087109;28;20055;-73
2021/07/17 04:16:50;;;;;;;17.60;3.47;;;;;;;-145.18;100.00;60484.78;5089576;28;20032;-73
2021/07/17 04:19:16;;;;;;;14.10;3.87;;;;;;;-145.18;100.00;60484.78;5086721;28;20047;-73
2021/07/17 04:21:41;;;;;;;9.93;3.13;;;;;;;-145.18;100.00;60484.78;5088769;28;20031;-72
2021/07/17 04:24:07;;;;;;;17.27;3.77;;;;;;;-145.18;100.00;60484.78;5087323;28;20035;-72
2021/07/17 04:26:32;;;;;;;9.47;2.87;;;;;;;-145.18;100.00;60484.78;5086205;28;20040;-72
2021/07/17 04:28:58;;;;;;;14.13;3.27;;;;;;;-145.18;100.00;60484.78;5084799;28;20032;-73
2021/07/17 04:31:23;;;;;;;14.80;3.00;;;;;;;-145.18;100.00;60484.78;5085822;28;20024;-73
2021/07/17 04:33:49;;;;;;;15.00;3.17;;;;;;;-145.18;100.00;60484.78;5084890;28;20066;-72
2021/07/17 04:36:15;;;;;;;14.10;3.13;;;;;;;-145.18;100.00;60484.78;5085141;28;20031;-73
2021/07/17 04:38:40;;;;;;;8.67;2.23;;;;;;;-145.18;100.00;60484.78;5087552;28;20043;-72
2021/07/17 04:41:06;;;;;;;10.33;2.37;;;;;;;-145.18;100.00;60484.78;5084746;28;20158;-72
2021/07/17 04:43:31;;;;;;;11.07;2.63;;;;;;;-145.18;100.00;60484.78;5086601;28;20080;-72
2021/07/17 04:45:57;;;;;;;10.37;2.73;;;;;;;-145.18;100.00;60484.78;5084766;28;20061;-72
2021/07/17 04:48:22;;;;;;;12.87;3.00;;;;;;;-145.18;100.00;60484.78;5085296;28;20140;-72
2021/07/17 04:50:48;;;;;;;11.43;3.30;;;;;;;-145.18;100.00;60484.78;5084523;28;20023;-72
2021/07/17 04:53:13;;;;;;;13.43;2.70;;;;;;;-145.18;100.00;60484.78;5097632;28;20032;-72
2021/07/17 04:55:39;;;;;;;14.50;2.47;;;;;;;-145.18;100.00;60484.78;5084246;28;20032;-72
2021/07/17 04:58:05;;;;;;;8.73;2.23;;;;;;;-145.18;100.00;60484.78;5097056;28;20035;-72
2021/07/17 05:00:30;;;;;;;9.70;2.30;;;;;;;-145.18;100.00;60484.78;5084785;28;20107;-72
2021/07/17 05:02:57;;;;;;;6.93;2.07;;;;;;;-145.18;100.00;60484.78;5095272;28;20118;-72
2021/07/17 05:05:23;;;;;;;10.33;2.80;;;;;;;-145.18;100.00;60484.78;5084320;28;20032;-72
2021/07/17 05:07:51;;;;;;;11.73;2.40;;;;;;;-145.18;100.00;60484.78;5092326;28;20097;-72
2021/07/17 05:10:19;;;;;;;7.47;2.40;;;;;;;-145.18;100.00;60484.78;5084197;28;20039;-72
2021/07/17 05:12:45;;;;;;;8.70;2.35;;;;;;;-145.18;100.00;60484.78;5091476;28;20151;-72
2021/07/17 05:15:12;;;;;;;9.35;2.47;;;;;;;-145.18;100.00;60484.78;5084394;28;20103;-72
2021/07/17 05:17:38;;;;;;;11.70;2.92;;;;;;;-145.18;100.00;60484.78;5090640;28;20178;-72
2021/07/17 05:20:06;;;;;;;10.00;2.05;;;;;;;-145.18;100.00;60484.78;5084244;28;20504;-72
2021/07/17 05:22:32;;;;;;;9.02;2.25;;;;;;;-145.18;100.00;60484.78;5089159;28;20610;-72
2021/07/17 05:24:58;;;;;;;11.10;2.03;;;;;;;-145.18;100.00;60484.78;5084152;28;20499;-72
2021/07/17 05:27:23;;;;;;;6.55;1.48;;;;;;;-145.18;100.00;60484.78;5088187;28;20036;-72
2021/07/17 05:29:49;;;;;;;13.07;1.73;;;;;;;-145.18;100.00;60484.78;5084038;28;20039;-71
2021/07/17 05:32:16;;;;;;;7.57;1.40;;;;;;;-145.18;100.00;60484.78;5086357;28;20066;-73
2021/07/17 05:34:41;;;;;;;9.65;2.10;;;;;;;-145.18;100.00;60484.78;5083600;28;20031;-73
2021/07/17 05:37:08;;;;;;;9.27;2.40;;;;;;;-145.18;100.00;60484.78;5081752;28;20745;-73
2021/07/17 05:39:34;;;;;;;8.95;1.70;;;;;;;-145.18;100.00;60484.78;5083708;28;20027;-73
2021/07/17 05:42:00;;;;;;;8.05;1.90;;;;;;;-145.18;100.00;60484.78;5086634;28;20050;-72
2021/07/17 05:44:25;;;;;;;11.15;2.03;;;;;;;-145.18;100.00;60484.78;5086815;28;20818;-72
2021/07/17 05:46:51;;;;;;;10.50;2.22;;;;;;;-145.18;100.00;60484.78;5087613;28;20016;-72
2021/07/17 05:49:17;;;;;;;7.05;1.45;;;;;;;-145.18;100.00;60484.78;5088660;28;20024;-72
2021/07/17 05:51:42;;;;;;;5.75;1.83;;;;;;;-145.18;100.00;60484.78;5087123;28;20038;-72
2021/07/17 05:54:08;;;;;;;5.30;1.50;;;;;;;-145.18;100.00;60484.78;5082949;28;20028;-72
2021/07/17 05:56:33;;;;;;;10.23;2.03;;;;;;;-145.18;100.00;60484.78;5085709;28;20031;-72
2021/07/17 05:58:59;;;;;;;8.30;2.08;;;;;;;-145.18;100.00;60484.78;5088878;28;20024;-72
2021/07/17 06:01:24;;;;;;;10.98;2.10;;;;;;;-145.18;100.00;60484.78;5084471;28;20035;-72
2021/07/17 06:03:50;;;;;;;9.20;1.92;;;;;;;-145.18;100.00;60484.78;5087982;28;20023;-72
2021/07/17 06:06:15;;;;;;;7.57;1.80;;;;;;;-145.18;100.00;60484.78;5087387;28;20032;-73
2021/07/17 06:08:41;;;;;;;8.00;1.48;;;;;;;-145.18;100.00;60484.78;5088536;28;20057;-73
2021/07/17 06:11:06;;;;;;;8.07;2.08;;;;;;;-145.18;100.00;60484.78;5084357;28;20031;-73
2021/07/17 06:13:32;;;;;;;7.15;1.67;;;;;;;-145.18;100.00;60484.78;5083821;28;20114;-73
2021/07/17 06:15:57;;;;;;;9.13;1.98;;;;;;;-145.18;100.00;60484.78;5082012;28;20032;-73
2021/07/17 06:18:23;;;;;;;8.40;2.42;;;;;;;-145.18;100.00;60484.78;5084886;28;20036;-73
2021/07/17 06:20:49;;;;;;;10.77;1.80;;;;;;;-145.18;100.00;60484.78;5082972;28;20052;-73
2021/07/17 06:23:15;;;;;;;6.85;1.50;;;;;;;-145.18;100.00;60484.78;5083468;28;20644;-73
2021/07/17 06:25:40;;;;;;;7.03;1.30;;;;;;;-145.18;100.00;60484.78;5082555;28;20599;-73
2021/07/17 06:28:09;;;;;;;5.97;1.42;;;;;;;-145.18;100.00;60484.78;5096590;28;20085;-73
2021/07/17 06:30:35;;;;;;;8.13;1.70;;;;;;;-145.18;100.00;60484.78;5083111;28;20024;-73
2021/07/17 06:33:00;;;;;;;6.90;1.60;;;;;;;-145.18;100.00;60484.78;5095093;28;20448;-73
2021/07/17 06:35:26;;;;;;;6.72;1.23;;;;;;;-145.18;100.00;60484.78;5082651;28;20023;-72
2021/07/17 06:37:51;;;;;;;7.60;1.38;;;;;;;-145.18;100.00;60484.78;5084552;28;20031;-72
2021/07/17 06:40:17;;;;;;;10.07;1.55;;;;;;;-145.18;100.00;60484.78;5082784;28;20040;-73
2021/07/17 06:42:48;;;;;;;10.68;1.50;;;;;;;-145.18;100.00;60484.78;5085499;28;20107;-73
2021/07/17 06:45:14;;;;;;;10.93;1.90;;;;;;;-145.18;100.00;60484.78;5082677;28;20032;-73
2021/07/17 06:47:40;;;;;;;6.60;1.42;;;;;;;-145.18;100.00;60484.78;5084091;28;20492;-73
2021/07/17 06:50:07;;;;;;;3.67;1.10;;;;;;;-145.18;100.00;60484.78;5082591;28;20031;-73
2021/07/17 06:52:33;;;;;;;7.18;1.30;;;;;;;-145.18;100.00;60484.78;5082291;28;20036;-73
2021/07/17 06:54:59;;;;;;;3.97;0.93;;;;;;;-145.18;100.00;60484.78;5081612;28;20095;-72
2021/07/17 06:57:24;;;;;;;6.25;0.80;;;;;;;-145.18;100.00;60484.78;5081907;28;20050;-73
2021/07/17 06:59:50;;;;;;;4.45;1.15;;;;;;;-145.18;100.00;60484.78;5082395;28;20032;-72
2021/07/17 07:02:15;;;;;;;6.60;1.42;;;;;;;-145.18;100.00;60484.78;5090290;28;20538;-73
2021/07/17 07:04:41;;;;;;;4.93;1.30;;;;;;;-145.18;100.00;60484.78;5085894;28;20054;-73
2021/07/17 07:07:06;;;;;;;4.95;1.13;;;;;;;-145.18;100.00;60484.78;5088876;28;20184;-73
2021/07/17 07:09:32;;;;;;;3.63;1.13;;;;;;;-145.18;100.00;60484.78;5086024;28;20028;-73
2021/07/17 07:11:57;;;;;;;5.97;1.60;;;;;;;-145.18;100.00;60484.78;5087607;28;20471;-73
2021/07/17 07:14:22;;;;;;;6.30;1.27;;;;;;;-145.18;100.00;60484.78;5085746;28;20051;-73
2021/07/17 07:16:49;;;;;;;5.45;1.13;;;;;;;-145.18;100.00;60484.78;5086223;28;20403;-73
2021/07/17 07:19:15;;;;;;;7.07;1.10;;;;;;;-145.18;100.00;60484.78;5086380;28;20038;-73
2021/07/17 07:21:40;;;;;;;4.72;1.02;;;;;;;-145.18;100.00;60484.78;5085659;28;20023;-73
2021/07/17 07:24:06;;;;;;;4.38;1.00;;;;;;;-145.18;100.00;60484.78;5086565;28;20054;-73
2021/07/17 07:26:31;;;;;;;4.40;0.90;;;;;;;-145.18;100.00;60484.78;5084190;28;20034;-73
2021/07/17 07:28:58;;;;;;;3.58;0.80;;;;;;;-145.18;100.00;60484.78;5086737;28;20484;-73
2021/07/17 07:31:25;;;;;;;7.10;1.45;;;;;;;-145.18;100.00;60484.78;5086270;28;20039;-73
2021/07/17 07:33:51;;;;;;;3.67;0.90;;;;;;;-145.18;100.00;60484.78;5090033;28;20024;-73
2021/07/17 07:36:17;;;;;;;4.68;1.10;;;;;;;-145.18;100.00;60484.78;5086158;28;20590;-73
2021/07/17 07:38:43;;;;;;;3.67;0.82;;;;;;;-145.18;100.00;60484.78;5087526;28;20032;-73
2021/07/17 07:41:09;;;;;;;5.47;0.80;;;;;;;-145.18;100.00;60484.78;5085536;28;20540;-73
2021/07/17 07:43:35;;;;;;;5.00;0.85;;;;;;;-145.18;100.00;60484.78;5085234;28;20107;-73
2021/07/17 07:46:00;;;;;;;3.42;0.73;;;;;;;-145.18;100.00;60484.78;5084654;28;20122;-73
2021/07/17 07:48:26;;;;;;;3.20;0.63;;;;;;;-145.18;100.00;60484.78;5086221;28;20035;-73
2021/07/17 07:50:52;;;;;;;6.85;0.95;;;;;;;-145.18;100.00;60484.78;5085938;28;20393;-73
2021/07/17 07:53:17;;;;;;;3.97;0.80;;;;;;;-145.18;100.00;60484.78;5085082;28;20176;-73
2021/07/17 07:55:43;;;;;;;2.40;0.63;;;;;;;-145.18;100.00;60484.78;5085496;28;20490;-73
2021/07/17 07:58:08;;;;;;;3.95;0.95;;;;;;;-145.18;100.00;60484.78;5084798;28;20457;-73
2021/07/17 08:00:34;;;;;;;2.10;0.82;;;;;;;-145.18;100.00;60484.78;5085275;28;20081;-73
2021/07/17 08:02:59;;;;;;;3.35;0.60;;;;;;;-145.18;100.00;60484.78;5090516;28;20115;-73
2021/07/17 08:05:25;;;;;;;4.88;1.10;;;;;;;-145.18;100.00;60484.78;5085509;28;20427;-73
2021/07/17 08:07:52;;;;;;;2.65;0.70;;;;;;;-145.18;100.00;60484.78;5096151;28;20040;-73
2021/07/17 08:10:18;;;;;;;4.43;0.93;;;;;;;-145.18;100.00;60484.78;5085256;28;20030;-73
2021/07/17 08:12:43;;;;;;;6.38;0.90;;;;;;;-145.18;100.00;60484.78;5085433;28;20036;-73
2021/07/17 08:15:09;;;;;;;3.05;0.70;;;;;;;-145.18;100.00;60484.78;5084878;28;20028;-73
2021/07/17 08:17:35;;;;;;;4.00;0.85;;;;;;;-145.18;100.00;60484.78;5091078;28;20028;-73
2021/07/17 08:20:01;;;;;;;2.50;0.65;;;;;;;-145.18;100.00;60484.78;5084702;28;20020;-74
2021/07/17 08:22:26;;;;;;;3.55;0.57;;;;;;;-145.18;100.00;60484.78;5092902;28;20049;-73
2021/07/17 08:24:52;;;;;;;2.80;0.73;;;;;;;-145.18;100.00;60484.78;5084927;28;20028;-74
2021/07/17 08:27:17;;;;;;;4.32;0.77;;;;;;;-145.18;100.00;60484.78;5091447;28;20027;-74
2021/07/17 08:29:43;;;;;;;5.10;0.90;;;;;;;-145.18;100.00;60484.78;5084513;28;20043;-74
2021/07/17 08:32:08;;;;;;;5.10;0.68;;;;;;;-145.18;100.00;60484.78;5090499;28;20761;-73
2021/07/17 08:34:34;;;;;;;4.68;1.02;;;;;;;-145.18;100.00;60484.78;5085254;28;20111;-74
2021/07/17 08:36:59;;;;;;;2.28;0.60;;;;;;;-145.18;100.00;60484.78;5086469;28;20028;-73
2021/07/17 08:39:25;;;;;;;3.67;0.73;;;;;;;-145.18;100.00;60484.78;5084816;28;20058;-74
2021/07/17 08:41:51;;;;;;;3.58;0.60;;;;;;;-145.18;100.00;60484.78;5086453;28;20114;-71
2021/07/17 08:44:17;;;;;;;4.07;0.70;;;;;;;-145.18;100.00;60484.78;5084602;28;20028;-73
2021/07/17 08:46:45;;;;;;;5.50;1.33;;;;;;;-145.18;100.00;60484.78;5084954;28;20027;-73
2021/07/17 08:49:11;;;;;;;2.78;0.68;;;;;;;-145.18;100.00;60484.78;5084301;28;20040;-73
2021/07/17 08:51:37;;;;;;;6.25;0.90;;;;;;;-145.18;100.00;60484.78;5085415;28;20032;-73
2021/07/17 08:54:03;;;;;;;3.55;0.65;;;;;;;-145.18;100.00;60484.78;5084695;28;20028;-73
2021/07/17 08:56:30;;;;;;;5.70;0.73;;;;;;;-145.18;100.00;60484.78;5086392;28;20020;-73
2021/07/17 08:58:56;;;;;;;3.75;1.10;;;;;;;-145.18;100.00;60484.78;5096232;28;20050;-72
2021/07/17 09:01:22;;;;;;;3.00;0.77;;;;;;;-145.18;100.00;60484.78;5085132;28;20491;-72
2021/07/17 09:03:49;;;;;;;2.40;0.77;;;;;;;-145.18;100.00;60484.78;5096290;28;20103;-73
2021/07/17 09:06:15;;;;;;;3.63;0.93;;;;;;;-145.18;100.00;60484.78;5084451;28;20023;-73
2021/07/17 09:08:40;;;;;;;3.10;0.60;;;;;;;-145.18;100.00;60484.78;5095596;28;20026;-73
2021/07/17 09:11:06;;;;;;;3.28;0.70;;;;;;;-145.18;100.00;60484.78;5084091;28;20446;-73
2021/07/17 09:13:36;;;;;;;2.30;0.60;;;;;;;-145.18;100.00;60484.78;5093643;28;20066;-72
2021/07/17 09:16:07;;;;;;;3.35;0.60;;;;;;;-145.18;100.00;60484.78;5084081;28;20036;-73
2021/07/17 09:18:52;;;;;;;3.28;0.75;;;;;;;-145.18;100.00;60484.78;5085486;28;20500;-73
2021/07/17 09:21:37;;;;;;;3.42;0.55;;;;;;;-145.18;100.00;60484.78;5083845;28;20094;-73
2021/07/17 09:24:08;;;;;;;3.13;0.60;;;;;;;-145.18;100.00;60484.78;5080187;28;20455;-73
2021/07/17 09:26:38;;;;;;;1.27;0.50;;;;;;;-145.18;100.00;60484.78;5086347;28;20085;-73
2021/07/17 09:29:12;;;;;;;4.85;0.70;;;;;;;-145.18;100.00;60484.78;5086827;28;20036;-73
2021/07/17 09:31:56;;;;;;;4.13;0.63;;;;;;;-145.18;100.00;60484.78;5086069;28;20032;-73
2021/07/17 09:34:24;;;;;;;1.15;0.45;;;;;;;-145.18;100.00;60484.78;5080882;28;20032;-73
2021/07/17 09:37:09;;;;;;;2.88;0.55;;;;;;;-145.18;100.00;60484.78;5085308;28;20028;-73
2021/07/17 09:39:40;;;;;;;2.58;0.47;;;;;;;-145.18;100.00;60484.78;5083157;28;20621;-73
2021/07/17 09:42:21;;;;;;;2.10;0.50;;;;;;;-145.18;100.00;60484.78;5080301;28;20016;-73
2021/07/17 09:44:51;;;;;;;4.35;0.60;;;;;;;-145.18;100.00;60484.78;5083500;28;20031;-73
2021/07/17 09:47:19;;;;;;;6.60;0.80;;;;;;;-145.18;100.00;60484.78;5077519;28;20059;-73
2021/07/17 09:49:45;;;;;;;2.05;0.50;;;;;;;-145.18;100.00;60484.78;5071741;28;20062;-73
2021/07/17 09:52:13;;;;;;;2.40;0.55;;;;;;;-145.18;100.00;60484.78;5070279;28;20055;-72
2021/07/17 09:54:40;;;;;;;4.57;1.00;;;;;;;-145.18;100.00;60484.78;5080180;28;20070;-73
2021/07/17 09:57:06;;;;;;;4.35;0.63;;;;;;;-145.18;100.00;60484.78;5079286;28;20435;-73
2021/07/17 09:59:32;;;;;;;2.58;0.50;;;;;;;-145.18;100.00;60484.78;5079160;28;20034;-73
2021/07/17 10:01:57;;;;;;;2.00;0.60;;;;;;;-145.18;100.00;60484.78;5087871;28;20035;-73
2021/07/17 10:04:23;;;;;;;4.57;0.50;;;;;;;-145.18;100.00;60484.78;5082804;28;20029;-73
2021/07/17 10:06:59;;;;;;;3.50;0.60;;;;;;;-145.18;100.00;60484.78;5087594;28;20027;-73
2021/07/17 10:09:35;;;;;;;2.83;0.73;;;;;;;-145.18;100.00;60484.78;5070837;28;20044;-73
2021/07/17 10:12:06;;;;;;;2.95;0.63;;;;;;;-145.18;100.00;60484.78;5087409;28;20033;-72
2021/07/17 10:14:35;;;;;;;2.13;0.40;;;;;;;-145.18;100.00;60484.78;5083024;28;20044;-72
2021/07/17 10:17:10;;;;;;;3.38;0.65;;;;;;;-145.18;100.00;60484.78;5085153;28;20040;-72
2021/07/17 10:19:37;;;;;;;2.35;0.50;;;;;;;-145.18;100.00;60484.78;5077360;28;20112;-72
2021/07/17 10:22:03;;;;;;;2.10;0.50;;;;;;;-145.18;100.00;60484.78;5087049;28;20472;-72
2021/07/17 10:24:29;;;;;;;3.20;0.60;;;;;;;-145.18;100.00;60484.78;5079288;28;20023;-72
2021/07/17 10:26:56;;;;;;;3.78;0.50;;;;;;;-145.18;100.00;60484.78;5083083;28;20028;-72
2021/07/17 10:29:26;;;;;;;2.58;0.68;;;;;;;-145.18;100.00;60484.78;5075108;28;20372;-72
2021/07/17 10:31:53;;;;;;;2.60;0.50;;;;;;;-145.18;100.00;60484.78;5080220;28;20023;-72
2021/07/17 10:34:19;;;;;;;3.90;0.60;;;;;;;-145.18;100.00;60484.78;5075991;28;20058;-72
2021/07/17 10:36:54;;;;;;;2.70;0.47;;;;;;;-145.18;100.00;60484.78;5083425;28;20039;-72
2021/07/17 10:39:24;;;;;;;1.10;0.47;;;;;;;-145.18;100.00;60484.78;5081810;28;20027;-72
2021/07/17 10:41:50;;;;;;;2.20;0.45;;;;;;;-145.18;100.00;60484.78;5086218;28;20023;-72
2021/07/17 10:44:16;;;;;;;3.33;0.68;;;;;;;-145.18;100.00;60484.78;5086811;28;20484;-72
2021/07/17 10:46:43;;;;;;;2.13;0.50;;;;;;;-145.18;100.00;60484.78;5085297;28;20062;-72
2021/07/17 10:49:11;;;;;;;3.30;0.45;;;;;;;-145.18;100.00;60484.78;5087456;28;20411;-72
2021/07/17 10:51:39;;;;;;;1.00;0.38;;;;;;;-145.18;100.00;60484.78;5085238;28;20624;-72
2021/07/17 10:54:06;;;;;;;2.03;0.50;;;;;;;-145.18;100.00;60484.78;5086937;28;20032;-72
2021/07/17 10:56:37;;;;;;;3.17;0.60;;;;;;;-145.18;100.00;60484.78;5084732;28;20020;-72
2021/07/17 10:59:24;;;;;;;2.75;0.40;;;;;;;-145.18;100.00;60484.78;5086537;28;20035;-72
2021/07/17 11:02:21;;;;;;;2.10;0.60;;;;;;;-145.18;100.00;60484.78;5068787;28;20036;-72
2021/07/17 11:04:52;;;;;;;1.45;0.50;;;;;;;-145.18;100.00;60484.78;5072503;28;20035;-72